createdAt,value
2018-07-14T00:01:00.263Z,11.00
2018-07-14T00:03:29.618Z,11.50
2018-07-14T00:05:58.506Z,10.67
2018-07-14T00:08:27.409Z,11.80
2018-07-14T00:10:56.311Z,11.47
2018-07-14T00:13:25.490Z,12.77
2018-07-14T00:15:54.442Z,12.40
2018-07-14T00:18:23.371Z,12.13
2018-07-14T00:20:52.581Z,11.80
2018-07-14T00:23:21.514Z,13.20
2018-07-14T00:25:55.869Z,12.03
2018-07-14T00:28:24.794Z,11.87
2018-07-14T00:30:53.690Z,11.47
2018-07-14T00:33:22.606Z,11.80
2018-07-14T00:35:51.519Z,12.60
2018-07-14T00:38:20.445Z,11.83
2018-07-14T00:40:49.435Z,12.13
2018-07-14T00:43:18.354Z,12.60
2018-07-14T00:45:47.250Z,12.80
2018-07-14T00:48:16.162Z,12.53
2018-07-14T00:50:45.154Z,12.30
2018-07-14T00:53:14.075Z,11.13
2018-07-14T00:55:42.997Z,11.83
2018-07-14T00:58:11.913Z,12.20
2018-07-14T01:00:40.810Z,13.47
2018-07-14T01:03:09.799Z,12.60
2018-07-14T01:05:38.707Z,14.03
2018-07-14T01:08:07.632Z,13.57
2018-07-14T01:10:36.532Z,12.03
2018-07-14T01:13:05.454Z,12.57
2018-07-14T01:15:34.623Z,13.57
2018-07-14T01:18:03.538Z,14.27
2018-07-14T01:20:32.531Z,11.93
2018-07-14T01:23:01.443Z,12.70
2018-07-14T01:25:30.343Z,12.73
2018-07-14T01:27:59.263Z,13.77
2018-07-14T01:30:28.291Z,12.53
2018-07-14T01:32:57.218Z,13.43
2018-07-14T01:35:26.115Z,11.93
2018-07-14T01:37:55.023Z,13.67
2018-07-14T01:40:23.915Z,13.90
2018-07-14T01:42:52.842Z,13.30
2018-07-14T01:45:21.735Z,13.17
2018-07-14T01:47:50.622Z,13.13
2018-07-14T01:50:19.533Z,13.80
2018-07-14T01:52:48.433Z,13.27
2018-07-14T01:55:17.377Z,13.50
2018-07-14T01:57:46.270Z,14.13
2018-07-14T02:00:15.424Z,14.70
2018-07-14T02:02:44.313Z,12.53
2018-07-14T02:05:13.017Z,13.30
2018-07-14T02:07:41.860Z,13.67
2018-07-14T02:10:10.762Z,12.20
2018-07-14T02:12:39.820Z,12.43
2018-07-14T02:15:08.726Z,12.83
2018-07-14T02:17:37.630Z,15.17
2018-07-14T02:20:06.547Z,12.90
2018-07-14T02:22:35.459Z,13.33
2018-07-14T02:25:04.366Z,13.50
2018-07-14T02:27:33.271Z,14.03
2018-07-14T02:30:02.188Z,13.90
2018-07-14T02:32:31.079Z,13.87
2018-07-14T02:34:59.994Z,13.53
2018-07-14T02:37:28.904Z,14.60
2018-07-14T02:39:57.811Z,15.80
2018-07-14T02:42:26.732Z,15.60
2018-07-14T02:44:55.643Z,12.23
2018-07-14T02:47:24.562Z,13.37
2018-07-14T02:49:53.472Z,13.50
2018-07-14T02:52:22.366Z,13.37
2018-07-14T02:54:51.299Z,15.10
2018-07-14T02:57:20.187Z,15.37
2018-07-14T02:59:49.136Z,14.77
2018-07-14T03:02:18.051Z,16.93
2018-07-14T03:04:46.955Z,16.50
2018-07-14T03:07:15.845Z,13.93
2018-07-14T03:09:44.760Z,13.93
2018-07-14T03:12:13.646Z,16.03
2018-07-14T03:14:42.566Z,17.00
2018-07-14T03:17:11.461Z,15.87
2018-07-14T03:19:40.393Z,13.07
2018-07-14T03:22:09.288Z,14.47
2018-07-14T03:24:38.191Z,16.23
2018-07-14T03:27:07.096Z,14.47
2018-07-14T03:29:35.990Z,13.33
2018-07-14T03:32:04.918Z,14.30
2018-07-14T03:34:33.811Z,15.33
2018-07-14T03:37:02.718Z,16.67
2018-07-14T03:39:31.631Z,15.03
2018-07-14T03:42:00.550Z,20.97
2018-07-14T03:44:29.427Z,16.03
2018-07-14T03:46:58.377Z,17.07
2018-07-14T03:49:27.232Z,14.63
2018-07-14T03:52:02.702Z,14.23
2018-07-14T03:54:32.474Z,16.27
2018-07-14T03:57:01.459Z,16.40
2018-07-14T03:59:30.275Z,15.83
2018-07-14T04:01:59.443Z,16.67
2018-07-14T04:04:28.345Z,15.13
2018-07-14T04:06:57.295Z,17.70
2018-07-14T04:09:26.179Z,17.97
2018-07-14T04:11:55.083Z,15.83
2018-07-14T04:14:23.973Z,15.50
2018-07-14T04:16:52.946Z,16.53
2018-07-14T04:19:21.845Z,16.20
2018-07-14T04:21:50.758Z,16.17
2018-07-14T04:24:19.646Z,17.83
2018-07-14T04:26:48.546Z,16.17
2018-07-14T04:29:17.449Z,16.83
2018-07-14T04:31:46.349Z,16.97
2018-07-14T04:34:15.238Z,16.17
2018-07-14T04:36:44.143Z,17.70
2018-07-14T04:39:13.037Z,18.13
2018-07-14T04:41:41.959Z,18.17
2018-07-14T04:44:10.847Z,17.93
2018-07-14T04:46:39.778Z,17.73
2018-07-14T04:49:08.670Z,18.30
2018-07-14T04:51:37.595Z,21.47
2018-07-14T04:54:06.518Z,19.90
2018-07-14T04:56:35.431Z,20.30
2018-07-14T04:59:04.647Z,18.93
2018-07-14T05:01:33.596Z,17.83
2018-07-14T05:04:02.483Z,18.30
2018-07-14T05:06:31.429Z,18.83
2018-07-14T05:09:00.315Z,18.73
2018-07-14T05:11:29.241Z,18.13
2018-07-14T05:13:58.136Z,20.17
2018-07-14T05:16:27.047Z,18.60
2018-07-14T05:18:56.155Z,18.57
2018-07-14T05:21:25.441Z,18.10
2018-07-14T05:23:54.306Z,17.33
2018-07-14T05:26:23.230Z,17.57
2018-07-14T05:28:52.123Z,17.30
2018-07-14T05:31:20.817Z,17.57
2018-07-14T05:33:49.597Z,17.80
2018-07-14T05:36:18.503Z,17.97
2018-07-14T05:38:47.444Z,17.63
2018-07-14T05:41:16.343Z,17.20
2018-07-14T05:43:46.049Z,17.50
2018-07-14T05:46:14.953Z,17.27
2018-07-14T05:48:43.961Z,17.10
2018-07-14T05:51:12.957Z,17.63
2018-07-14T05:53:41.918Z,17.97
2018-07-14T05:56:10.839Z,16.90
2018-07-14T05:58:39.753Z,16.57
2018-07-14T06:01:08.674Z,16.30
2018-07-14T06:03:37.636Z,15.23
2018-07-14T06:06:06.579Z,14.50
2018-07-14T06:08:35.885Z,9.10
2018-07-14T06:11:04.930Z,8.23
2018-07-14T06:13:33.816Z,9.13
2018-07-14T06:16:02.694Z,10.23
2018-07-14T06:18:31.626Z,8.33
2018-07-14T06:21:02.096Z,8.13
2018-07-14T06:23:31.366Z,7.83
2018-07-14T06:26:00.250Z,8.57
2018-07-14T06:28:29.150Z,8.17
2018-07-14T06:30:58.074Z,8.80
2018-07-14T06:33:26.998Z,8.53
2018-07-14T06:35:56.600Z,8.60
2018-07-14T06:38:25.946Z,9.30
2018-07-14T06:40:54.778Z,9.10
2018-07-14T06:43:23.678Z,7.93
2018-07-14T06:45:52.566Z,7.80
2018-07-14T06:48:21.471Z,9.10
2018-07-14T06:50:50.362Z,8.60
2018-07-14T06:53:19.311Z,7.87
2018-07-14T06:55:48.259Z,8.77
2018-07-14T06:58:17.218Z,8.27
2018-07-14T07:00:46.336Z,8.07
2018-07-14T07:03:15.262Z,6.70
2018-07-14T07:05:44.139Z,7.10
2018-07-14T07:08:14.805Z,7.10
2018-07-14T07:10:48.507Z,6.43
2018-07-14T07:13:18.783Z,7.67
2018-07-14T07:15:50.657Z,5.90
2018-07-14T07:18:19.550Z,8.17
2018-07-14T07:20:48.444Z,6.10
2018-07-14T07:23:17.344Z,6.43
2018-07-14T07:25:46.222Z,6.57
2018-07-14T07:28:16.094Z,5.73
2018-07-14T07:30:44.986Z,6.97
2018-07-14T07:33:13.910Z,5.83
2018-07-14T07:35:43.171Z,5.90
2018-07-14T07:38:12.054Z,5.83
2018-07-14T07:40:41.050Z,5.77
2018-07-14T07:43:10.401Z,5.97
2018-07-14T07:45:39.262Z,7.00
2018-07-14T07:48:08.152Z,7.07
2018-07-14T07:50:37.058Z,6.10
2018-07-14T07:53:06.266Z,6.43
2018-07-14T07:55:35.185Z,6.00
2018-07-14T07:58:04.058Z,6.47
2018-07-14T08:00:32.950Z,7.20
2018-07-14T08:03:01.839Z,8.90
2018-07-14T08:05:30.735Z,7.83
2018-07-14T08:07:59.681Z,5.87
2018-07-14T08:10:28.553Z,6.57
2018-07-14T08:12:58.025Z,5.70
2018-07-14T08:15:26.935Z,6.70
2018-07-14T08:17:55.821Z,6.23
2018-07-14T08:20:24.723Z,6.00
2018-07-14T08:22:53.649Z,5.97
2018-07-14T08:25:22.486Z,6.40
2018-07-14T08:27:51.369Z,6.00
2018-07-14T08:30:20.346Z,7.17
2018-07-14T08:32:49.220Z,6.60
2018-07-14T08:35:18.125Z,6.20
2018-07-14T08:37:48.650Z,6.33
2018-07-14T08:40:18.054Z,7.77
2018-07-14T08:42:47.405Z,7.03
2018-07-14T08:45:16.594Z,7.30
2018-07-14T08:47:45.570Z,6.00
2018-07-14T08:50:14.461Z,6.87
2018-07-14T08:52:43.334Z,6.57
2018-07-14T08:55:12.342Z,7.40
2018-07-14T08:57:41.246Z,8.93
2018-07-14T09:00:10.148Z,7.67
2018-07-14T09:02:39.038Z,7.70
2018-07-14T09:05:07.994Z,9.47
2018-07-14T09:07:36.885Z,9.17
2018-07-14T09:10:05.839Z,9.60
2018-07-14T09:12:34.732Z,9.10
2018-07-14T09:15:03.693Z,9.57
2018-07-14T09:17:33.091Z,9.87
2018-07-14T09:20:01.999Z,8.50
2018-07-14T09:22:30.906Z,8.87
2018-07-14T09:24:59.819Z,9.57
2018-07-14T09:27:28.726Z,9.90
2018-07-14T09:29:57.628Z,9.80
2018-07-14T09:32:26.564Z,10.40
2018-07-14T09:34:55.418Z,11.60
2018-07-14T09:37:24.326Z,10.00
2018-07-14T09:39:53.270Z,10.17
2018-07-14T09:42:21.997Z,11.30
2018-07-14T09:44:51.030Z,12.13
2018-07-14T09:47:19.949Z,12.80
2018-07-14T09:49:48.834Z,12.80
2018-07-14T09:52:17.826Z,12.60
2018-07-14T09:54:46.740Z,28.33
2018-07-14T09:57:15.646Z,12.47
2018-07-14T09:59:44.514Z,12.80
2018-07-14T10:02:13.418Z,12.33
2018-07-14T10:04:42.316Z,13.20
2018-07-14T10:07:11.229Z,12.87
2018-07-14T10:09:40.459Z,11.50
2018-07-14T10:12:09.375Z,11.40
2018-07-14T10:14:38.312Z,11.18
2018-07-14T10:17:07.228Z,12.40
2018-07-14T10:19:36.130Z,11.37
2018-07-14T10:22:05.087Z,12.82
2018-07-14T10:24:33.970Z,14.50
2018-07-14T10:27:02.900Z,13.80
2018-07-14T10:29:31.800Z,13.58
2018-07-14T10:32:00.754Z,11.20
2018-07-14T10:34:29.650Z,12.75
2018-07-14T10:36:58.570Z,11.78
2018-07-14T10:39:27.472Z,12.33
2018-07-14T10:41:56.413Z,13.70
2018-07-14T10:44:25.319Z,13.68
2018-07-14T10:46:54.327Z,13.80
2018-07-14T10:49:23.126Z,13.93
2018-07-14T10:51:52.066Z,12.93
2018-07-14T10:54:20.978Z,12.60
2018-07-14T10:56:49.898Z,13.80
2018-07-14T10:59:18.798Z,13.77
2018-07-14T11:01:47.712Z,13.05
2018-07-14T11:04:16.621Z,12.28
2018-07-14T11:06:45.519Z,13.25
2018-07-14T11:09:14.408Z,12.73
2018-07-14T11:11:43.310Z,11.30
2018-07-14T11:14:12.286Z,10.55
2018-07-14T11:16:41.189Z,9.78
2018-07-14T11:19:10.080Z,9.00
2018-07-14T11:21:38.977Z,9.30
2018-07-14T11:24:07.867Z,8.78
2018-07-14T11:26:36.747Z,8.03
2018-07-14T11:29:05.755Z,11.12
2018-07-14T11:31:34.633Z,10.30
2018-07-14T11:34:03.519Z,9.30
2018-07-14T11:36:32.736Z,8.43
2018-07-14T11:39:01.639Z,8.78
2018-07-14T11:41:30.534Z,7.37
2018-07-14T11:43:59.415Z,6.75
2018-07-14T11:46:28.287Z,6.83
2018-07-14T11:48:57.278Z,7.35
2018-07-14T11:51:26.180Z,7.62
2018-07-14T11:53:55.088Z,7.65
2018-07-14T11:56:24.046Z,7.05
2018-07-14T11:58:53.018Z,7.95
2018-07-14T12:01:21.988Z,7.22
2018-07-14T12:03:50.867Z,7.30
2018-07-14T12:06:19.790Z,7.30
2018-07-14T12:08:48.707Z,7.40
2018-07-14T12:11:17.839Z,7.60
2018-07-14T12:13:46.744Z,6.92
2018-07-14T12:16:15.631Z,7.80
2018-07-14T12:18:44.538Z,7.00
2018-07-14T12:21:13.422Z,7.83
2018-07-14T12:23:42.313Z,6.65
2018-07-14T12:26:11.194Z,6.97
2018-07-14T12:28:40.101Z,6.92
2018-07-14T12:31:09.089Z,6.60
2018-07-14T12:33:38.047Z,7.15
2018-07-14T12:36:07.023Z,6.65
2018-07-14T12:38:35.934Z,6.92
2018-07-14T12:41:04.962Z,7.42
2018-07-14T12:43:33.868Z,6.67
2018-07-14T12:46:02.741Z,7.17
2018-07-14T12:48:31.638Z,7.65
2018-07-14T12:51:00.522Z,7.10
2018-07-14T12:53:29.417Z,7.37
2018-07-14T12:55:58.354Z,6.42
2018-07-14T12:58:27.290Z,6.60
2018-07-14T13:00:56.186Z,7.22
2018-07-14T13:03:25.075Z,7.90
2018-07-14T13:05:53.950Z,8.00
2018-07-14T13:08:22.854Z,8.05
2018-07-14T13:10:51.727Z,6.87
2018-07-14T13:13:20.642Z,7.45
2018-07-14T13:15:49.546Z,6.45
2018-07-14T13:18:18.422Z,6.22
2018-07-14T13:20:47.327Z,6.55
2018-07-14T13:23:16.195Z,7.42
2018-07-14T13:25:45.086Z,6.03
2018-07-14T13:28:13.959Z,5.72
2018-07-14T13:30:42.838Z,6.97
2018-07-14T13:33:11.735Z,5.80
2018-07-14T13:35:40.622Z,6.78
2018-07-14T13:38:09.500Z,6.28
2018-07-14T13:40:38.494Z,5.22
2018-07-14T13:43:07.373Z,5.40
2018-07-14T13:45:36.350Z,5.67
2018-07-14T13:48:05.018Z,6.50
2018-07-14T13:50:33.803Z,5.62
2018-07-14T13:53:02.700Z,5.10
2018-07-14T13:55:31.621Z,5.45
2018-07-14T13:58:00.510Z,5.15
2018-07-14T14:00:29.404Z,6.03
2018-07-14T14:02:58.277Z,6.65
2018-07-14T14:05:27.191Z,7.03
2018-07-14T14:07:56.158Z,6.12
2018-07-14T14:10:25.058Z,4.95
2018-07-14T14:12:53.937Z,6.37
2018-07-14T14:15:23.770Z,5.00
2018-07-14T14:17:52.664Z,4.58
2018-07-14T14:20:21.560Z,4.53
2018-07-14T14:22:50.445Z,6.67
2018-07-14T14:25:19.355Z,5.87
2018-07-14T14:27:48.547Z,4.85
2018-07-14T14:30:17.538Z,4.12
2018-07-14T14:32:48.204Z,4.00
2018-07-14T14:35:17.204Z,4.00
2018-07-14T14:37:46.791Z,4.08
2018-07-14T14:40:16.760Z,5.78
2018-07-14T14:42:47.861Z,4.30
2018-07-14T14:45:16.807Z,6.08
2018-07-14T14:47:46.972Z,4.67
2018-07-14T14:50:15.892Z,4.60
2018-07-14T14:52:44.766Z,4.00
2018-07-14T14:55:14.739Z,4.60
2018-07-14T14:57:43.944Z,3.67
2018-07-14T15:00:12.839Z,3.55
2018-07-14T15:02:41.798Z,3.40
2018-07-14T15:05:10.702Z,3.47
2018-07-14T15:07:39.595Z,3.62
2018-07-14T15:10:08.500Z,3.42
2018-07-14T15:12:37.383Z,3.98
2018-07-14T15:15:26.810Z,3.35
2018-07-14T15:18:01.107Z,3.12
2018-07-14T15:20:30.012Z,3.22
2018-07-14T15:22:58.987Z,4.42
2018-07-14T15:25:33.546Z,3.60
2018-07-14T15:28:02.428Z,3.92
2018-07-14T15:30:31.397Z,3.77
2018-07-14T15:33:00.672Z,3.67
2018-07-14T15:35:29.323Z,3.02
2018-07-14T15:37:58.180Z,3.40
2018-07-14T15:40:28.397Z,3.20
2018-07-14T15:42:57.557Z,2.95
2018-07-14T15:45:26.432Z,3.33
2018-07-14T15:47:55.411Z,3.12
2018-07-14T15:50:24.566Z,2.87
2018-07-14T15:52:53.506Z,4.75
2018-07-14T15:55:22.466Z,3.60
2018-07-14T15:57:51.856Z,3.67
2018-07-14T16:00:20.850Z,3.50
2018-07-14T16:02:49.621Z,3.37
2018-07-14T16:05:18.519Z,3.30
2018-07-14T16:07:47.421Z,3.75
2018-07-14T16:10:16.314Z,3.12
2018-07-14T16:12:45.234Z,3.30
2018-07-14T16:15:14.137Z,3.83
2018-07-14T16:17:43.062Z,3.30
2018-07-14T16:20:12.036Z,3.02
2018-07-14T16:22:40.967Z,2.70
2018-07-14T16:25:09.889Z,4.80
2018-07-14T16:27:39.065Z,2.85
2018-07-14T16:30:08.002Z,3.40
2018-07-14T16:32:36.907Z,3.70
2018-07-14T16:35:05.836Z,3.35
2018-07-14T16:37:34.734Z,3.10
2018-07-14T16:40:04.096Z,3.42
2018-07-14T16:42:33.179Z,3.67
2018-07-14T16:45:02.254Z,4.72
2018-07-14T16:47:31.183Z,3.65
2018-07-14T16:50:00.236Z,4.22
2018-07-14T16:52:29.085Z,3.20
2018-07-14T16:54:57.981Z,4.72
2018-07-14T16:57:27.060Z,2.72
2018-07-14T16:59:55.908Z,3.00
2018-07-14T17:02:24.892Z,4.40
2018-07-14T17:04:53.780Z,2.98
2018-07-14T17:07:22.711Z,4.22
2018-07-14T17:09:51.589Z,3.25
2018-07-14T17:12:20.674Z,6.72
2018-07-14T17:14:49.567Z,4.87
2018-07-14T17:17:18.478Z,4.80
2018-07-14T17:19:47.382Z,3.20
2018-07-14T17:22:16.289Z,2.80
2018-07-14T17:24:45.261Z,3.42
2018-07-14T17:27:14.172Z,4.00
2018-07-14T17:29:43.093Z,3.70
2018-07-14T17:32:11.974Z,5.80
2018-07-14T17:34:40.855Z,3.85
2018-07-14T17:37:09.759Z,2.92
2018-07-14T17:39:38.643Z,3.92
2018-07-14T17:42:07.572Z,3.80
2018-07-14T17:44:36.446Z,3.08
2018-07-14T17:47:05.587Z,4.75
2018-07-14T17:49:34.477Z,3.92
